Time;durP1;ratioP1;P1;durP2;ratioP2;P2;SDS_P1;SDS_P2;PMS_P1;PMS_P2;Temp;Humidity;BMP_temperature;BMP_pressure;BME280_temperature;BME280_humidity;BME280_pressure;Samples;Min_cycle;Max_cycle;Signal;HPM_P1;HPM_P2
2022/08/20 00:00:35;;;;;;;7.88;0.45;;;;;;;12.49;100.00;99867.28;7395161;19;20383;-79
2022/08/20 00:03:06;;;;;;;1.60;0.55;;;;;;;12.44;100.00;99871.53;7394759;19;20805;-78
2022/08/20 00:05:34;;;;;;;;;;;;;;;12.40;100.00;99865.41;7396807;19;20036;-79
2022/08/20 00:08:00;;;;;;;0.45;0.45;;;;;;;12.35;100.00;99866.06;7397283;19;20269;-79
2022/08/20 00:10:28;;;;;;;1.20;0.20;;;;;;;12.34;100.00;99866.56;7397118;19;20023;-79
2022/08/20 00:12:55;;;;;;;0.30;0.30;;;;;;;12.33;100.00;99865.03;7397471;19;20007;-79
2022/08/20 00:15:27;;;;;;;0.40;0.30;;;;;;;12.31;100.00;99870.34;7396426;19;20472;-79
2022/08/20 00:17:54;;;;;;;0.38;0.32;;;;;;;12.28;100.00;99866.47;7396791;19;20411;-79
2022/08/20 00:20:23;;;;;;;0.82;0.55;;;;;;;12.24;100.00;99865.16;7399310;19;20018;-79
2022/08/20 00:22:49;;;;;;;0.73;0.55;;;;;;;12.19;100.00;99867.38;7394848;19;20014;-79
2022/08/20 00:25:16;;;;;;;0.68;0.30;;;;;;;12.14;100.00;99859.72;7396337;19;20495;-78
2022/08/20 00:27:42;;;;;;;1.25;0.45;;;;;;;12.09;100.00;99857.59;7394100;19;20037;-78
2022/08/20 00:30:11;;;;;;;0.75;0.55;;;;;;;12.07;100.00;99859.34;7399686;19;20011;-78
2022/08/20 00:32:46;;;;;;;0.40;0.38;;;;;;;12.01;100.00;99858.50;7395561;19;20019;-78
2022/08/20 00:35:15;;;;;;;0.80;0.40;;;;;;;11.98;100.00;99849.06;7395146;19;20078;-78
2022/08/20 00:37:41;;;;;;;2.25;0.70;;;;;;;11.98;100.00;99856.66;7395412;19;20099;-78
2022/08/20 00:40:12;;;;;;;12.70;1.38;;;;;;;11.98;100.00;99856.66;7397996;19;20015;-78
2022/08/20 00:42:43;;;;;;;7.18;2.03;;;;;;;11.99;100.00;99844.25;7395539;19;20026;-78
2022/08/20 00:45:10;;;;;;;3.15;0.95;;;;;;;11.96;100.00;99840.41;7393470;19;20029;-78
2022/08/20 00:47:44;;;;;;;0.98;0.47;;;;;;;11.98;100.00;99840.69;7394149;19;20038;-78
2022/08/20 00:50:16;;;;;;;3.97;0.52;;;;;;;11.96;100.00;99842.44;7398355;19;20010;-78
2022/08/20 00:52:45;;;;;;;7.35;0.50;;;;;;;11.91;100.00;99835.50;7395987;19;20082;-79
2022/08/20 00:55:12;;;;;;;0.77;0.47;;;;;;;11.87;100.00;99834.94;7395763;19;20025;-79
2022/08/20 00:58:01;;;;;;;0.30;0.10;;;;;;;11.83;100.00;99828.81;7396477;19;20015;-78
2022/08/20 01:00:36;;;;;;;0.10;0.10;;;;;;;11.80;100.00;99834.59;7395029;19;20576;-79
2022/08/20 01:03:07;;;;;;;0.50;0.50;;;;;;;11.80;100.00;99832.53;7394981;19;20021;-78
2022/08/20 01:05:33;;;;;;;8.10;0.85;;;;;;;11.79;100.00;99839.41;7396234;19;20015;-78
2022/08/20 01:07:59;;;;;;;0.20;0.20;;;;;;;11.75;100.00;99833.25;7395447;19;20086;-78
2022/08/20 01:10:31;;;;;;;4.35;0.35;;;;;;;11.74;100.00;99826.13;7393854;19;20014;-78
2022/08/20 01:12:58;;;;;;;1.20;0.38;;;;;;;11.68;100.00;99821.72;7395519;19;20033;-78
2022/08/20 01:15:27;;;;;;;6.93;1.10;;;;;;;11.61;100.00;99834.00;7394578;19;20018;-79
2022/08/20 01:17:57;;;;;;;1.33;0.45;;;;;;;11.56;100.00;99837.50;7394416;19;20023;-79
2022/08/20 01:20:32;;;;;;;0.25;0.25;;;;;;;11.55;100.00;99818.44;7398597;19;20021;-78
2022/08/20 01:23:26;;;;;;;3.92;0.40;;;;;;;11.54;100.00;99828.84;7395076;19;20042;-78
2022/08/20 01:26:17;;;;;;;0.30;0.30;;;;;;;11.51;100.00;99826.22;7391389;19;20021;-79
2022/08/20 01:28:52;;;;;;;0.52;0.40;;;;;;;11.51;100.00;99832.56;7391672;19;20030;-78
2022/08/20 01:31:25;;;;;;;0.20;0.20;;;;;;;11.50;100.00;99824.69;7393815;19;20046;-78
2022/08/20 01:33:53;;;;;;;1.48;0.50;;;;;;;11.47;100.00;99836.81;7393344;19;20034;-78
2022/08/20 01:36:24;;;;;;;0.30;0.30;;;;;;;11.43;100.00;99839.81;7394081;19;20021;-78
2022/08/20 01:38:50;;;;;;;0.82;0.63;;;;;;;11.42;100.00;99841.03;7397124;19;20015;-78
2022/08/20 01:41:31;;;;;;;2.03;0.60;;;;;;;11.41;100.00;99836.72;7389816;19;20022;-79
2022/08/20 01:43:58;;;;;;;;;;;;;;;11.40;100.00;99840.75;7394576;19;20018;-78
2022/08/20 01:46:45;;;;;;;0.47;0.40;;;;;;;11.36;100.00;99834.59;7392582;19;20281;-78
2022/08/20 01:49:29;;;;;;;0.35;0.35;;;;;;;11.34;100.00;99826.72;7393737;19;20049;-78
2022/08/20 01:51:59;;;;;;;0.60;0.60;;;;;;;11.31;100.00;99832.50;7389989;19;20014;-79
2022/08/20 01:54:26;;;;;;;0.32;0.32;;;;;;;11.25;100.00;99828.84;7391590;19;20429;-79
2022/08/20 01:57:13;;;;;;;0.50;0.40;;;;;;;11.24;100.00;99827.31;7392787;19;20033;-78
2022/08/20 01:59:40;;;;;;;5.95;0.32;;;;;;;11.26;100.00;99824.81;7396701;19;20050;-78
2022/08/20 02:02:07;;;;;;;0.77;0.40;;;;;;;11.28;100.00;99831.44;7393600;19;20014;-78
2022/08/20 02:04:34;;;;;;;0.77;0.52;;;;;;;11.29;100.00;99823.84;7391176;19;20022;-79
2022/08/20 02:07:03;;;;;;;0.73;0.32;;;;;;;11.23;100.00;99814.63;7391390;19;20357;-79
2022/08/20 02:09:34;;;;;;;0.20;0.20;;;;;;;11.19;100.00;99806.47;7394774;19;20349;-79
2022/08/20 02:12:04;;;;;;;;;;;;;;;11.17;100.00;99808.19;7392590;19;20028;-78
2022/08/20 02:14:32;;;;;;;0.20;0.20;;;;;;;11.11;100.00;99808.06;7390039;19;19911;-78
2022/08/20 02:16:58;;;;;;;0.50;0.50;;;;;;;11.12;100.00;99814.41;7390372;19;20023;-78
2022/08/20 02:19:32;;;;;;;1.30;0.50;;;;;;;11.14;100.00;99811.91;7393294;19;20025;-79
2022/08/20 02:22:01;;;;;;;0.35;0.35;;;;;;;11.14;100.00;99809.91;7388959;19;20086;-78
2022/08/20 02:24:28;;;;;;;1.20;0.38;;;;;;;11.14;100.00;99806.34;7391746;19;20010;-79
2022/08/20 02:26:55;;;;;;;2.25;0.63;;;;;;;11.14;100.00;99806.34;7392740;19;20018;-78
2022/08/20 02:29:22;;;;;;;3.00;0.57;;;;;;;11.09;100.00;99798.66;7392448;19;20029;-78
2022/08/20 02:31:48;;;;;;;0.30;0.30;;;;;;;11.09;100.00;99804.22;7389765;19;20404;-78
2022/08/20 02:34:14;;;;;;;0.73;0.60;;;;;;;11.07;100.00;99803.94;7390530;19;20374;-78
2022/08/20 02:36:42;;;;;;;0.82;0.30;;;;;;;11.08;100.00;99800.69;7392784;19;20015;-79
2022/08/20 02:39:10;;;;;;;0.68;0.43;;;;;;;11.10;100.00;99803.75;7394551;19;20014;-79
2022/08/20 02:41:38;;;;;;;0.52;0.40;;;;;;;11.11;100.00;99807.31;7391504;19;20014;-78
2022/08/20 02:44:06;;;;;;;3.13;1.40;;;;;;;11.14;100.00;99795.19;7392426;19;20086;-78
2022/08/20 02:46:34;;;;;;;0.25;0.25;;;;;;;11.14;100.00;99797.97;7390825;19;20029;-79
2022/08/20 02:49:00;;;;;;;0.10;0.10;;;;;;;11.13;100.00;99793.69;7392393;19;20010;-78
2022/08/20 02:51:26;;;;;;;0.25;0.25;;;;;;;11.10;100.00;99789.06;7391885;19;20022;-78
2022/08/20 02:53:53;;;;;;;5.85;0.30;;;;;;;11.11;100.00;99785.78;7392253;19;20060;-78
2022/08/20 02:56:19;;;;;;;0.47;0.47;;;;;;;11.11;100.00;99774.63;7391418;19;20023;-78
2022/08/20 02:58:45;;;;;;;0.85;0.20;;;;;;;11.10;100.00;99787.03;7390769;19;20010;-78
2022/08/20 03:01:14;;;;;;;0.30;0.30;;;;;;;11.10;100.00;99783.47;7392082;19;20082;-78
2022/08/20 03:03:41;;;;;;;0.32;0.32;;;;;;;11.08;100.00;99791.56;7391572;19;20018;-78
2022/08/20 03:06:09;;;;;;;1.52;0.30;;;;;;;11.03;100.00;99786.63;7390536;19;20573;-79
2022/08/20 03:08:36;;;;;;;0.30;0.30;;;;;;;11.00;100.00;99793.19;7391170;19;20085;-79
2022/08/20 03:11:04;;;;;;;0.45;0.43;;;;;;;10.96;100.00;99790.56;7387963;19;20342;-79
2022/08/20 03:13:30;;;;;;;0.30;0.22;;;;;;;10.96;100.00;99785.00;7390491;19;20015;-79
2022/08/20 03:16:01;;;;;;;0.63;0.43;;;;;;;11.05;100.00;99781.34;7388471;19;20033;-78
2022/08/20 03:18:31;;;;;;;0.38;0.20;;;;;;;11.14;100.00;99789.63;7389385;19;20357;-78
2022/08/20 03:20:58;;;;;;;0.95;0.55;;;;;;;11.21;100.00;99789.25;7390029;19;20022;-78
2022/08/20 03:23:24;;;;;;;0.20;0.20;;;;;;;11.26;100.00;99785.78;7390399;19;20018;-78
2022/08/20 03:25:50;;;;;;;1.70;0.40;;;;;;;11.31;100.00;99782.31;7389258;19;20010;-78
2022/08/20 03:28:18;;;;;;;4.28;0.35;;;;;;;11.38;100.00;99776.34;7387936;19;20014;-79
2022/08/20 03:30:45;;;;;;;0.10;0.10;;;;;;;11.45;100.00;99781.53;7390898;19;20026;-78
2022/08/20 03:33:11;;;;;;;0.57;0.40;;;;;;;11.47;100.00;99773.44;7391139;19;20019;-79
2022/08/20 03:35:38;;;;;;;0.43;0.43;;;;;;;11.48;100.00;99774.97;7399227;19;20032;-78
2022/08/20 03:38:06;;;;;;;1.75;0.55;;;;;;;11.48;100.00;99774.97;7399712;19;20007;-78
2022/08/20 03:40:34;;;;;;;0.60;0.50;;;;;;;11.47;100.00;99767.88;7398203;19;20015;-78
2022/08/20 03:43:00;;;;;;;0.47;0.47;;;;;;;11.44;100.00;99774.41;7397929;19;20026;-79
2022/08/20 03:45:28;;;;;;;0.35;0.22;;;;;;;11.42;100.00;99771.34;7395999;19;20007;-78
2022/08/20 03:47:56;;;;;;;0.20;0.20;;;;;;;11.41;100.00;99769.81;7397273;19;20490;-78
2022/08/20 03:50:25;;;;;;;0.30;0.20;;;;;;;11.42;100.00;99766.53;7401460;19;20022;-78
2022/08/20 03:52:51;;;;;;;0.30;0.20;;;;;;;11.38;100.00;99763.19;7394801;19;20018;-78
2022/08/20 03:55:19;;;;;;;8.45;0.45;;;;;;;11.37;100.00;99764.41;7398149;19;20030;-78
2022/08/20 03:57:48;;;;;;;0.45;0.45;;;;;;;11.37;100.00;99770.00;7398255;19;20017;-79
2022/08/20 04:00:19;;;;;;;7.43;0.28;;;;;;;11.37;100.00;99763.63;7401944;19;20010;-78
2022/08/20 04:02:45;;;;;;;;;;;;;;;11.37;100.00;99758.06;7403700;19;20598;-78
2022/08/20 04:05:12;;;;;;;0.28;0.28;;;;;;;11.35;100.00;99752.19;7398090;19;19927;-78
2022/08/20 04:07:39;;;;;;;0.95;0.10;;;;;;;11.38;100.00;99754.03;7395948;19;20042;-78
2022/08/20 04:10:08;;;;;;;1.17;0.40;;;;;;;11.44;100.00;99752.88;7400468;19;20011;-78
2022/08/20 04:12:39;;;;;;;0.10;0.10;;;;;;;11.48;100.00;99755.44;7395999;19;20052;-78
2022/08/20 04:15:13;;;;;;;1.45;0.22;;;;;;;11.52;100.00;99747.66;7395271;19;20018;-79
2022/08/20 04:17:41;;;;;;;0.40;0.10;;;;;;;11.60;100.00;99759.97;7395436;19;20427;-79
2022/08/20 04:20:10;;;;;;;0.40;0.35;;;;;;;11.66;100.00;99752.44;7400162;19;20018;-78
2022/08/20 04:22:36;;;;;;;0.10;0.10;;;;;;;11.73;100.00;99757.63;7395846;19;20371;-78
2022/08/20 04:25:04;;;;;;;1.70;0.28;;;;;;;11.81;100.00;99752.41;7394130;19;20023;-78
2022/08/20 04:27:31;;;;;;;0.60;0.22;;;;;;;11.87;100.00;99756.81;7394787;19;20052;-78
2022/08/20 04:30:02;;;;;;;0.20;0.20;;;;;;;11.90;100.00;99757.88;7398318;19;20011;-79
2022/08/20 04:32:29;;;;;;;0.57;0.20;;;;;;;11.86;100.00;99757.31;7392533;19;20015;-78
2022/08/20 04:34:55;;;;;;;0.30;0.30;;;;;;;11.82;100.00;99759.53;7392760;19;20535;-78
2022/08/20 04:37:22;;;;;;;0.85;0.32;;;;;;;11.74;100.00;99759.16;7393011;19;20038;-78
2022/08/20 04:42:37;;;;;;;0.45;0.40;;;;;;;11.67;100.00;99765.16;7394116;19;20026;-78
2022/08/20 04:45:05;;;;;;;0.10;0.10;;;;;;;11.60;100.00;99759.97;7391795;19;20015;-78
2022/08/20 04:47:32;;;;;;;0.10;0.10;;;;;;;11.60;100.00;99762.75;7391946;19;20014;-79
2022/08/20 04:50:01;;;;;;;0.40;0.40;;;;;;;11.56;100.00;99759.41;7396105;19;20349;-78
2022/08/20 04:52:28;;;;;;;6.15;1.00;;;;;;;11.54;100.00;99761.91;7391416;19;20481;-79
2022/08/20 04:54:57;;;;;;;0.60;0.60;;;;;;;11.54;100.00;99767.47;7392931;19;20026;-79
2022/08/20 04:57:24;;;;;;;0.93;0.28;;;;;;;11.58;100.00;99761.69;7392520;19;20010;-79
2022/08/20 04:59:54;;;;;;;0.25;0.20;;;;;;;11.63;100.00;99758.22;7395805;19;20129;-78
2022/08/20 05:02:21;;;;;;;0.20;0.10;;;;;;;11.73;100.00;99756.88;7392684;19;20057;-78
2022/08/20 05:04:48;;;;;;;0.85;0.35;;;;;;;11.86;100.00;99766.44;7391217;19;20011;-78
2022/08/20 05:07:15;;;;;;;2.17;0.73;;;;;;;11.97;100.00;99766.59;7392013;19;20015;-79
2022/08/20 05:09:42;;;;;;;0.10;0.10;;;;;;;12.11;100.00;99765.75;7391641;19;20025;-78
2022/08/20 05:12:09;;;;;;;0.30;0.20;;;;;;;12.28;100.00;99774.34;7394634;19;20018;-77
2022/08/20 05:14:35;;;;;;;0.75;0.22;;;;;;;12.40;100.00;99772.47;7391052;19;20010;-77
2022/08/20 05:17:05;;;;;;;0.28;0.25;;;;;;;12.52;100.00;99782.50;7390662;19;20384;-78
2022/08/20 05:19:36;;;;;;;0.17;0.17;;;;;;;12.61;100.00;99782.34;7393835;19;20022;-77
2022/08/20 05:22:03;;;;;;;1.10;0.40;;;;;;;12.69;100.00;99781.41;7391048;19;20018;-78
2022/08/20 05:24:29;;;;;;;0.25;0.17;;;;;;;12.78;100.00;99783.28;7391466;19;20029;-78
2022/08/20 05:26:55;;;;;;;2.97;0.77;;;;;;;12.85;100.00;99782.84;7246661;19;2854243;-78
2022/08/20 05:29:22;;;;;;;1.65;0.30;;;;;;;12.89;100.00;99772.22;7393552;19;20070;-78
2022/08/20 05:31:48;;;;;;;0.20;0.20;;;;;;;12.96;100.00;99777.38;7390234;19;20520;-78
2022/08/20 05:34:15;;;;;;;2.00;1.10;;;;;;;13.06;100.00;99787.16;7394196;19;20070;-77
2022/08/20 05:36:46;;;;;;;0.10;0.10;;;;;;;13.15;100.00;99775.81;7393854;19;20021;-78
2022/08/20 05:39:13;;;;;;;0.77;0.20;;;;;;;13.20;100.00;99772.31;7395579;19;20010;-78
2022/08/20 05:41:40;;;;;;;0.20;0.20;;;;;;;13.27;100.00;99785.06;7390523;19;20033;-77
2022/08/20 05:44:09;;;;;;;4.85;1.13;;;;;;;13.34;100.00;99781.84;7393714;19;20074;-77
2022/08/20 05:46:39;;;;;;;0.20;0.10;;;;;;;13.41;100.00;99784.94;7395238;19;20033;-77
2022/08/20 05:49:07;;;;;;;0.60;0.20;;;;;;;13.47;100.00;99787.78;7395566;19;20011;-77
2022/08/20 05:51:35;;;;;;;0.25;0.20;;;;;;;13.55;100.00;99783.25;7391645;19;20011;-77
2022/08/20 05:54:03;;;;;;;0.80;0.43;;;;;;;13.64;100.00;99785.88;7394063;19;20049;-77
2022/08/20 05:56:30;;;;;;;0.63;0.40;;;;;;;13.72;100.00;99788.97;7390851;19;20026;-80
2022/08/20 05:59:03;;;;;;;1.30;1.02;;;;;;;13.79;100.00;99785.72;7393664;19;20468;-77
2022/08/20 06:01:34;;;;;;;0.20;0.20;;;;;;;13.83;100.00;99791.84;7392836;19;20476;-77
2022/08/20 06:06:45;;;;;;;6.57;0.60;;;;;;;14.02;100.00;99788.13;7394247;19;20006;-77
2022/08/20 06:09:11;;;;;;;1.27;0.47;;;;;;;14.11;100.00;99785.13;7393537;19;20018;-77
2022/08/20 06:11:37;;;;;;;0.38;0.20;;;;;;;14.26;100.00;99790.56;7390305;19;20594;-77
2022/08/20 06:14:04;;;;;;;0.10;0.00;;;;;;;14.38;100.00;99787.31;7390612;19;20014;-78
2022/08/20 06:16:30;;;;;;;0.47;0.20;;;;;;;14.53;100.00;99780.75;7390836;19;20015;-77
2022/08/20 06:18:57;;;;;;;0.20;0.17;;;;;;;14.65;100.00;99787.91;7394821;19;20014;-78
2022/08/20 06:21:23;;;;;;;3.00;0.20;;;;;;;14.78;100.00;99780.56;7390456;19;20019;-77
2022/08/20 06:23:49;;;;;;;4.80;0.50;;;;;;;14.92;100.00;99784.44;7392822;19;20007;-78
2022/08/20 06:26:15;;;;;;;0.95;0.38;;;;;;;15.05;100.00;99779.09;7393827;19;20006;-77
2022/08/20 06:28:42;;;;;;;0.45;0.32;;;;;;;15.14;100.00;99785.22;7393877;19;20015;-77
2022/08/20 06:31:08;;;;;;;5.57;0.28;;;;;;;15.23;100.00;99783.44;7391667;19;20035;-78
2022/08/20 06:33:34;;;;;;;1.05;0.50;;;;;;;15.32;100.00;99777.56;7388429;19;20050;-78
2022/08/20 06:36:01;;;;;;;0.10;0.10;;;;;;;15.43;100.00;99777.56;7387421;19;20010;-78
2022/08/20 06:38:27;;;;;;;2.30;0.30;;;;;;;15.53;100.00;99776.06;7387747;19;20852;-78
2022/08/20 06:40:53;;;;;;;1.90;0.15;;;;;;;15.62;100.00;99773.78;7387416;19;20019;-78
2022/08/20 06:43:19;;;;;;;1.20;0.45;;;;;;;15.72;100.00;99766.59;7385936;19;20041;-77
2022/08/20 06:45:45;;;;;;;2.75;0.70;;;;;;;15.85;100.00;99758.41;7386593;19;20387;-78
2022/08/20 06:48:13;;;;;;;0.82;0.30;;;;;;;16.07;100.00;99757.56;7390016;19;20010;-78
2022/08/20 06:50:43;;;;;;;0.30;0.10;;;;;;;16.16;100.00;99760.09;7391025;19;20018;-77
2022/08/20 06:53:15;;;;;;;5.67;0.33;;;;;;;16.28;100.00;99756.00;7393125;19;20011;-78
2022/08/20 06:55:47;;;;;;;3.17;0.17;;;;;;;16.38;100.00;99760.03;7392723;19;20015;-77
2022/08/20 06:58:13;;;;;;;0.75;0.32;;;;;;;16.46;100.00;99752.56;7392548;19;20018;-78
2022/08/20 07:00:42;;;;;;;2.40;0.85;;;;;;;16.52;100.00;99775.06;7392191;19;20018;-80
2022/08/20 07:03:09;;;;;;;1.48;0.15;;;;;;;16.66;100.00;99771.94;7391803;19;20033;-80
2022/08/20 07:05:41;;;;;;;1.35;0.50;;;;;;;16.82;100.00;99775.94;7390326;19;20021;-80
2022/08/20 07:08:17;;;;;;;2.45;0.40;;;;;;;16.99;100.00;99768.16;7390814;19;20025;-80
2022/08/20 07:10:44;;;;;;;0.70;0.60;;;;;;;17.21;100.00;99772.84;7390886;19;20026;-81
2022/08/20 07:13:11;;;;;;;0.30;0.10;;;;;;;17.37;100.00;99771.94;7389211;19;20015;-80
2022/08/20 07:15:38;;;;;;;8.48;0.55;;;;;;;17.53;100.00;99768.25;7391496;19;20042;-80
2022/08/20 07:18:05;;;;;;;0.43;0.20;;;;;;;17.70;100.00;99763.25;7390818;19;20018;-80
2022/08/20 07:20:34;;;;;;;6.63;0.35;;;;;;;17.71;100.00;99764.00;7394551;19;20018;-80
2022/08/20 07:23:01;;;;;;;0.77;0.28;;;;;;;17.72;100.00;99759.88;7388402;19;20025;-80
2022/08/20 07:25:29;;;;;;;0.73;0.20;;;;;;;17.85;100.00;99763.59;7387943;19;20011;-80
2022/08/20 07:28:03;;;;;;;4.13;0.88;;;;;;;17.85;100.00;99766.41;7390152;19;20019;-80
2022/08/20 07:33:15;;;;;;;2.67;0.60;;;;;;;18.10;100.00;99762.28;7391553;19;20373;-79
2022/08/20 07:35:41;;;;;;;0.17;0.17;;;;;;;18.12;100.00;99762.53;7391135;19;20044;-80
2022/08/20 07:38:25;;;;;;;5.85;0.40;;;;;;;18.09;100.00;99754.38;7391835;19;20039;-80
2022/08/20 07:40:54;;;;;;;1.63;0.20;;;;;;;18.08;100.00;99753.59;7390234;19;20479;-79
2022/08/20 07:43:24;;;;;;;0.82;0.32;;;;;;;18.15;100.00;99758.66;7391128;19;20377;-80
2022/08/20 07:45:54;;;;;;;0.95;0.40;;;;;;;18.23;100.00;99764.47;7390815;19;20028;-80
2022/08/20 07:48:21;;;;;;;8.10;0.30;;;;;;;18.28;100.00;99776.97;7390293;19;20018;-80
2022/08/20 07:50:48;;;;;;;0.30;0.20;;;;;;;18.21;100.00;99772.69;7387232;19;20050;-79
2022/08/20 07:53:15;;;;;;;0.85;0.00;;;;;;;18.15;100.00;99777.59;7390556;19;20019;-80
2022/08/20 07:55:43;;;;;;;0.80;0.30;;;;;;;18.06;100.00;99780.81;7388913;19;20684;-80
2022/08/20 07:58:12;;;;;;;6.25;0.17;;;;;;;18.03;100.00;99782.63;7389227;19;20112;-80
2022/08/20 08:00:39;;;;;;;0.40;0.20;;;;;;;18.00;100.00;99780.84;7389015;19;20025;-81
2022/08/20 08:03:06;;;;;;;1.10;0.30;;;;;;;18.09;100.00;99783.31;7389803;19;20107;-79
2022/08/20 08:05:37;;;;;;;2.10;0.40;;;;;;;18.23;100.00;99786.25;7389063;19;20022;-80
2022/08/20 08:08:16;;;;;;;0.40;0.15;;;;;;;18.39;100.00;99783.22;7389781;19;20018;-80
2022/08/20 08:10:45;;;;;;;4.03;0.28;;;;;;;18.54;100.00;99777.16;7389563;19;20081;-81
2022/08/20 08:13:26;;;;;;;1.60;0.70;;;;;;;18.58;100.00;99780.47;7388018;19;20014;-81
2022/08/20 08:15:56;;;;;;;6.63;0.28;;;;;;;18.71;100.00;99770.00;7388542;19;20038;-81
2022/08/20 08:18:27;;;;;;;2.95;0.63;;;;;;;18.79;100.00;99773.75;7386799;19;20022;-81
2022/08/20 08:20:53;;;;;;;;;;;;;;;18.91;100.00;99777.94;7392016;19;20036;-81
2022/08/20 08:23:22;;;;;;;0.25;0.05;;;;;;;18.98;100.00;99770.91;7396052;19;20342;-82
2022/08/20 08:25:50;;;;;;;0.82;0.17;;;;;;;19.05;100.00;99764.66;7395627;19;20033;-82
2022/08/20 08:28:18;;;;;;;6.50;0.50;;;;;;;19.14;100.00;99761.44;7395027;19;20006;-81
2022/08/20 08:30:46;;;;;;;5.78;0.30;;;;;;;19.25;100.00;99766.88;7395994;19;20021;-80
2022/08/20 08:33:29;;;;;;;3.33;0.65;;;;;;;19.36;100.00;99766.00;7395007;19;20018;-81
2022/08/20 08:36:03;;;;;;;0.35;0.20;;;;;;;19.57;100.00;99770.53;7392370;19;20036;-82
2022/08/20 08:38:33;;;;;;;2.20;0.40;;;;;;;19.78;100.00;99756.53;7395283;19;20019;-81
2022/08/20 08:41:11;;;;;;;1.33;0.65;;;;;;;19.93;100.00;99767.28;7392223;19;20014;-80
2022/08/20 08:43:37;;;;;;;0.70;0.05;;;;;;;20.00;100.00;99761.00;7394953;19;20028;-80
2022/08/20 08:46:08;;;;;;;0.65;0.17;;;;;;;20.12;100.00;99773.63;7395309;19;20011;-81
2022/08/20 08:48:42;;;;;;;1.23;0.22;;;;;;;20.28;100.00;99762.00;7397212;19;20045;-82
2022/08/20 08:51:11;;;;;;;2.85;0.38;;;;;;;20.34;100.00;99773.19;7393266;19;20018;-81
2022/08/20 08:53:46;;;;;;;1.30;0.80;;;;;;;20.36;100.00;99771.34;7393801;19;20034;-81
2022/08/20 08:56:13;;;;;;;0.70;0.17;;;;;;;20.35;100.00;99769.06;7394545;19;20014;-80
2022/08/20 08:58:42;;;;;;;4.80;0.17;;;;;;;20.20;100.00;99763.19;7397751;19;20373;-80
2022/08/20 09:01:14;;;;;;;2.50;0.20;;;;;;;20.19;100.00;99764.47;7394642;19;20465;-81
2022/08/20 09:03:43;;;;;;;4.53;0.10;;;;;;;20.18;100.00;99765.78;7395392;19;20497;-81
2022/08/20 09:06:14;;;;;;;5.43;0.17;;;;;;;20.22;100.00;99761.38;7395619;19;20157;-81
2022/08/20 09:08:49;;;;;;;0.88;0.20;;;;;;;20.64;100.00;99761.53;7396833;19;20022;-80
2022/08/20 09:11:17;;;;;;;3.05;0.20;;;;;;;20.80;100.00;99758.31;7393842;19;20018;-81
2022/08/20 09:13:43;;;;;;;3.83;0.25;;;;;;;20.91;100.00;99748.81;7394132;19;20017;-81
2022/08/20 09:16:11;;;;;;;1.33;0.30;;;;;;;20.93;100.00;99749.78;7393405;19;20038;-82
2022/08/20 09:18:37;;;;;;;0.30;0.10;;;;;;;20.79;100.00;99756.78;7395118;19;20014;-81
2022/08/20 09:21:05;;;;;;;2.10;0.38;;;;;;;20.61;100.00;99754.13;7393892;19;20019;-81
2022/08/20 09:23:31;;;;;;;2.28;0.35;;;;;;;20.55;100.00;99747.81;7392594;19;20021;-80
2022/08/20 09:25:57;;;;;;;2.75;0.30;;;;;;;20.66;100.00;99742.66;7393736;19;20047;-81
2022/08/20 09:28:24;;;;;;;2.67;0.30;;;;;;;20.81;100.00;99742.09;7394506;19;20018;-80
2022/08/20 09:30:51;;;;;;;6.65;0.50;;;;;;;21.15;100.00;99748.53;7391052;19;20107;-82
2022/08/20 09:33:17;;;;;;;1.05;0.13;;;;;;;21.62;100.00;99734.19;7392231;19;20427;-81
2022/08/20 09:35:45;;;;;;;0.82;0.20;;;;;;;21.90;100.00;99748.44;7394782;19;20011;-81
2022/08/20 09:38:12;;;;;;;6.35;0.30;;;;;;;21.88;100.00;99742.56;7395228;19;20097;-81
2022/08/20 09:40:38;;;;;;;1.63;0.22;;;;;;;21.97;100.00;99742.06;7393137;19;20030;-79
2022/08/20 09:43:06;;;;;;;5.05;0.80;;;;;;;22.02;100.00;99749.66;7393083;19;20359;-82
2022/08/20 09:45:34;;;;;;;4.10;0.43;;;;;;;21.98;100.00;99743.59;7391782;19;20038;-80
2022/08/20 09:48:00;;;;;;;1.95;0.63;;;;;;;21.95;100.00;99739.00;7392975;19;20055;-81
2022/08/20 09:50:29;;;;;;;1.67;0.20;;;;;;;21.81;100.00;99748.91;7399162;19;20018;-81
2022/08/20 09:52:58;;;;;;;7.43;0.52;;;;;;;21.60;100.00;99754.59;7393165;19;20038;-81
2022/08/20 09:55:34;;;;;;;2.92;0.60;;;;;;;21.56;100.00;99753.44;7392242;19;20512;-82
2022/08/20 09:58:02;;;;;;;1.48;0.20;;;;;;;21.70;100.00;99746.38;7394380;19;20022;-81
2022/08/20 10:00:29;;;;;;;1.65;0.40;;;;;;;21.75;100.00;99742.63;7392127;19;20476;-82
2022/08/20 10:02:55;;;;;;;2.08;0.20;;;;;;;21.95;100.00;99736.19;7394073;19;20023;-82
2022/08/20 10:05:21;;;;;;;0.10;0.10;;;;;;;22.09;100.00;99731.91;7391993;19;20010;-81
2022/08/20 10:07:47;;;;;;;9.57;0.30;;;;;;;21.98;100.00;99735.06;7391579;19;20014;-81
2022/08/20 10:10:14;;;;;;;1.00;0.17;;;;;;;21.88;100.00;99751.06;7397815;19;20014;-80
2022/08/20 10:12:41;;;;;;;1.00;0.65;;;;;;;21.77;100.00;99745.66;7391297;19;20028;-80
2022/08/20 10:15:09;;;;;;;0.82;0.32;;;;;;;21.95;100.00;99735.41;7393513;19;20019;-81
2022/08/20 10:17:37;;;;;;;7.03;0.55;;;;;;;22.19;100.00;99730.09;7393540;19;20015;-82
2022/08/20 10:20:04;;;;;;;3.22;0.10;;;;;;;22.52;100.00;99722.69;7396108;19;20024;-82
2022/08/20 10:22:31;;;;;;;6.80;0.90;;;;;;;22.87;100.00;99732.47;7392121;19;20357;-80
2022/08/20 10:24:57;;;;;;;2.00;0.20;;;;;;;23.11;100.00;99734.78;7392944;19;20424;-80
2022/08/20 10:27:23;;;;;;;1.15;0.20;;;;;;;23.29;100.00;99725.16;7390754;19;20029;-81
2022/08/20 10:29:50;;;;;;;4.57;0.20;;;;;;;23.18;100.00;99734.81;7394517;19;20037;-82
2022/08/20 10:32:16;;;;;;;0.65;0.20;;;;;;;23.25;100.00;99724.78;7391454;19;20011;-81
2022/08/20 10:34:45;;;;;;;0.30;0.00;;;;;;;23.41;100.00;99720.66;7391487;19;20061;-82
2022/08/20 10:37:16;;;;;;;1.45;0.20;;;;;;;23.31;100.00;99719.66;7392675;19;20018;-81
2022/08/20 10:39:43;;;;;;;0.55;0.10;;;;;;;23.13;100.00;99723.63;7394483;19;20078;-80
2022/08/20 10:42:09;;;;;;;6.70;0.20;;;;;;;22.97;100.00;99720.00;7388789;19;20006;-83
2022/08/20 10:44:36;;;;;;;0.65;0.28;;;;;;;22.71;100.00;99734.50;7392662;19;20411;-83
2022/08/20 10:47:16;;;;;;;1.10;0.20;;;;;;;22.48;100.00;99716.63;7393967;19;20018;-83
2022/08/20 10:49:42;;;;;;;1.00;0.10;;;;;;;22.43;100.00;99732.47;7394515;19;20035;-84
2022/08/20 10:52:09;;;;;;;4.22;0.20;;;;;;;22.53;100.00;99730.63;7391198;19;20021;-83
2022/08/20 10:54:35;;;;;;;3.72;0.57;;;;;;;22.56;100.00;99726.66;7395141;19;20006;-84
2022/08/20 10:57:02;;;;;;;2.53;0.10;;;;;;;22.50;100.00;99716.81;7394098;19;20018;-87
2022/08/20 10:59:29;;;;;;;0.70;0.10;;;;;;;22.39;100.00;99709.34;7395935;19;20037;-83
2022/08/20 11:01:56;;;;;;;3.80;0.10;;;;;;;22.34;100.00;99710.31;7393803;19;20015;-82
2022/08/20 11:04:22;;;;;;;1.75;0.40;;;;;;;22.34;100.00;99712.38;7393260;19;20017;-84
2022/08/20 11:06:48;;;;;;;0.40;0.00;;;;;;;22.40;100.00;99710.88;7391323;19;20015;-81
2022/08/20 11:09:14;;;;;;;2.30;0.68;;;;;;;22.66;100.00;99703.44;7393052;19;20353;-83
2022/08/20 11:11:40;;;;;;;1.85;0.20;;;;;;;22.96;100.00;99703.50;7391059;19;20031;-81
2022/08/20 11:14:07;;;;;;;3.92;0.30;;;;;;;23.28;100.00;99706.59;7392522;19;20015;-80
2022/08/20 11:16:33;;;;;;;1.05;0.57;;;;;;;23.51;100.00;99707.38;7392859;19;20019;-80
2022/08/20 11:18:59;;;;;;;4.47;0.20;;;;;;;23.84;100.00;99703.38;7392247;19;20346;-81
2022/08/20 11:21:25;;;;;;;0.85;0.20;;;;;;;23.78;100.00;99714.16;7391079;19;20015;-81
2022/08/20 11:23:51;;;;;;;3.10;0.28;;;;;;;23.57;100.00;99712.88;7391843;19;20010;-81
2022/08/20 11:26:22;;;;;;;2.38;0.60;;;;;;;23.24;100.00;99706.19;7391758;19;20070;-81
2022/08/20 11:28:49;;;;;;;2.15;0.10;;;;;;;23.16;100.00;99711.88;7393028;19;20018;-81
2022/08/20 11:31:15;;;;;;;0.35;0.20;;;;;;;23.19;100.00;99712.84;7388689;19;20341;-80
2022/08/20 11:33:41;;;;;;;1.05;0.22;;;;;;;23.33;100.00;99719.88;7390244;19;20350;-82
2022/08/20 11:36:07;;;;;;;5.65;0.47;;;;;;;23.45;100.00;99714.59;7390912;19;20483;-80
2022/08/20 11:38:33;;;;;;;7.20;0.77;;;;;;;23.52;100.00;99714.56;7392310;19;20023;-79
2022/08/20 11:41:00;;;;;;;0.90;0.10;;;;;;;23.66;100.00;99704.53;7390469;19;20021;-80